x

Capers Nearshore (cap 2) (41029) Weather Station

11:08am - Sat 30th Jul 2016 All times are EDT. -4 hours from GMT.

  • Wind
    4mph, 9mph gusts
  • Sea Temp 86°f
  • Air Temp 88°f
  • Sea Pressure 1016.7mb
  • Capers Nearshore (cap 2)
  • Capers Nearshore (cap 2)

More Historic Weather Station data

Upgrade to MSW Pro to gain access to the past 30 days of data for over 8000 Wavebouys and Weather Stations around the globe.

Join Pro

Comparision Forecast

View Surf forecast
   
Sat 07/30 11:08am 4 9 mph 1016.7mb 86f 88f
10:08am 7 9 mph 1016.3mb 85f 86f
9:08am 9 11 mph 1016mb 85f 85f
8:08am 9 13 mph 1015.4mb 85f 85f
7:08am 13 18 mph 1014.4mb 85f 85f
6:08am 16 20 mph 1013.6mb 85f 86f
5:08am 18 22 mph 1013.3mb 85f 86f
4:08am 18 22 mph 1013.4mb 85f 86f
3:08am 16 22 mph 1013.7mb 85f 86f
2:08am 18 25 mph 1014mb 84f 86f
1:08am 18 25 mph 1014.3mb 84f 85f
12:08am 18 22 mph 1014.6mb 85f 86f
Fri 07/29 11:08pm 18 22 mph 1014.7mb 85f 86f
10:08pm 18 22 mph 1014.8mb 85f 86f
9:08pm 16 22 mph 1013.9mb 85f 85f
8:08pm 20 27 mph 1013.8mb 85f 85f
7:08pm 20 25 mph 1013.5mb 85f 86f
6:08pm 20 29 mph 1013.2mb 85f 86f
5:08pm 22 29 mph 1013.1mb 85f 85f
4:08pm 20 27 mph 1013.2mb 85f 86f
3:08pm 20 27 mph 1013.5mb 85f 86f
2:08pm 13 18 mph 1013.8mb 85f 90f
1:08pm 13 20 mph 1014mb 85f 89f
12:08pm 18 25 mph 1014.5mb 85f 89f
11:08am 13 20 mph 1015.1mb 85f 87f
10:08am 11 13 mph 1015.2mb 85f 86f
9:08am 13 18 mph 1015.3mb 84f 85f
8:08am 13 18 mph 1015.2mb 84f 84f
7:08am 13 18 mph 1014.8mb 84f 84f
6:08am 13 18 mph 1014.2mb 84f 84f
5:08am 16 25 mph 1013.6mb 84f 85f
4:08am 18 25 mph 1013.6mb 84f 85f
3:08am 20 27 mph 1013.5mb 84f 85f
2:08am 22 31 mph 1013.8mb 84f 85f
1:08am 22 29 mph 1014mb 85f 85f
12:08am 20 27 mph 1014.3mb 84f 85f
Thu 07/28 11:08pm 18 25 mph 1014.5mb 84f 85f
10:08pm 18 25 mph 1014.6mb 85f 85f
9:08pm 18 25 mph 1013.7mb 84f 85f
8:08pm 20 25 mph 1013.6mb 84f 86f
7:08pm 20 27 mph 1013.6mb 84f 86f
6:08pm 18 25 mph 1013.8mb 85f 86f
5:08pm 20 27 mph 1013.7mb 85f 86f
4:08pm 18 25 mph 1014.1mb 85f 85f
3:08pm 18 22 mph 1014.3mb 85f 85f
2:08pm 13 18 mph 1014.9mb 85f 86f
1:08pm 11 13 mph 1015.5mb 85f 87f
12:08pm 4 9 mph 1016mb 85f 87f
11:08am 7 9 mph 1016.3mb 84f 87f
10:08am 11 13 mph 1016.5mb 83f 86f
9:08am 7 11 mph 1016.4mb 83f 84f
8:08am 11 13 mph 1015.9mb 83f 84f
7:08am 13 16 mph 1015.5mb 83f 84f
6:08am 11 13 mph 1015.3mb 83f 84f
5:08am 13 18 mph 1015.1mb 83f 85f
4:08am 16 22 mph 1014.9mb 84f 85f
3:08am 20 27 mph 1014.8mb 84f 85f
2:08am 20 25 mph 1015.2mb 84f 85f
1:08am 18 22 mph 1015.3mb 84f 85f
12:08am 16 22 mph 1015.6mb 84f 85f
Wed 07/27 11:08pm 16 20 mph 1015.4mb 84f 85f
10:08pm 16 20 mph 1015.2mb 84f 85f
9:08pm 18 22 mph 1014.4mb 84f 85f
8:08pm 16 22 mph 1014.4mb 84f 85f
7:08pm 18 22 mph 1014.7mb 85f 85f
6:08pm 18 25 mph 1014.8mb 85f 85f
5:08pm 20 27 mph 1014.8mb 85f 85f
4:08pm 18 25 mph 1015.6mb 85f 85f
3:08pm 18 25 mph 1016.2mb 85f 85f
2:08pm 16 20 mph 1016.5mb 85f 85f
1:08pm 13 18 mph 1017.2mb 85f 84f
12:08pm 11 13 mph 1017.4mb 84f 85f
11:08am 9 13 mph 1017.4mb 84f 85f
10:08am 9 11 mph 1017.2mb 84f 85f
9:08am 11 16 mph 1017.2mb 83f 83f
8:08am 11 16 mph 1017.1mb 83f 83f
7:08am 13 18 mph 1016.8mb 82f 83f
6:08am 13 18 mph 1016.5mb 82f 83f
5:08am 13 18 mph 1016.2mb 82f 84f
4:08am 16 20 mph 1016.3mb 83f 84f
3:08am 18 25 mph 1016.1mb 83f 85f
2:08am 18 27 mph 1016.4mb 83f 85f
1:08am 20 29 mph 1016.3mb 84f 85f
12:08am 18 25 mph 1016.6mb 83f 85f
Tue 07/26 11:08pm 16 20 mph 1016.6mb 84f 84f
10:08pm 18 22 mph 1016.2mb 84f 84f
9:08pm 18 22 mph 1015.8mb 84f 84f
8:08pm 18 25 mph 1015.5mb 84f 85f
7:08pm 18 25 mph 1015.3mb 84f 85f
6:08pm 18 25 mph 1015.6mb 84f 85f
5:08pm 18 25 mph 1016.2mb 85f 85f